Pasadena 2N

39° 08' 31"N, 76° 30' 27"W, Elevation 43 ft.
Eastern Time

Hourly observations for the last 72 hours

Date Time Temperature (°F) Humi-
dity

(%)
Wind
(mph)
Pressure Rain (in) Sun
(W/m2)
ET
(in)
Air Dew 6 Hour 1 Hr 3 Hr 6 Hr Day
Alt
(in)
Sea
Level

(mb)
Max Min
17 05:00 50.8 48.3 91 Calm 30.04 1017.3 0.00 0 0.000
17 04:00 52.3 49.2 89 Calm 30.03 1017.0 0.00 0 0.000
17 03:00 53.9 50.1 87 Calm 30.04 1017.2 0.00 0 0.000
17 02:00 53.5 49.7 53.6 50.6 87 WSW 1 G 3 30.06 1018.0 0.00 0 0.000
17 01:00 52.5 48.7 87 WSW 0 G 1 30.07 1018.3 0.00 0 0.000
17 00:00 51.9 48.2 87 WSW 1 G 2 30.08 1018.7 0.00 0 0.073
16 23:00 52.0 47.9 86 WSW 1 G 2 30.09 1018.9 0.00 0 0.073
16 22:00 50.8 47.1 87 WSW 1 G 2 30.10 1019.5 0.00 0 0.073
16 21:00 50.8 47.1 87 Calm 30.10 1019.2 0.00 0 0.073
16 20:00 50.7 46.0 61.7 50.6 84 Calm 30.11 1019.5 0.00 0 0.073
16 19:00 51.4 45.8 81 Calm 30.10 1019.5 0.00 0 0.073
16 18:00 55.1 45.1 69 Calm 30.09 1019.0 0.00 19 0.072
16 17:00 59.0 39.9 49 W 4 G 11 30.10 1019.4 0.00 91 0.068
16 16:00 60.7 42.0 50 SSW 2 G 10 30.10 1019.5 0.00 169 0.063
16 15:00 60.2 39.9 47 NW 4 G 10 30.11 1019.6 0.00 209 0.053
16 14:00 61.5 44.2 61.5 54.2 53 W 3 G 9 30.14 1020.7 0.00 613 0.042
16 13:00 59.9 43.2 54 W 1 G 7 30.17 1021.6 0.00 378 0.031
16 12:00 58.2 44.8 61 NNW 2 G 9 30.19 1022.4 0.00 360 0.024
16 11:00 57.4 45.7 65 NE 4 G 9 30.20 1022.8 0.00 229 0.019
16 10:00 56.2 43.8 63 SW 2 G 6 30.20 1022.6 0.00 144 0.016
16 09:00 54.4 43.3 66 W 5 G 9 30.20 1022.7 0.00 100 0.014
16 08:00 54.2 43.5 63.2 54.0 67 W 4 G 9 30.17 1021.8 0.00 26 0.013
16 07:00 55.1 43.6 65 WNW 2 G 10 30.15 1021.0 0.00 0 0.011
16 06:00 56.5 44.9 65 NW 2 G 15 30.13 1020.3 0.00 0 0.009
16 05:00 58.0 46.3 65 WNW 4 G 12 30.11 1019.6 0.00 0 0.007
16 04:00 59.4 45.5 60 WNW 3 G 11 30.09 1019.0 0.00 0 0.005
16 03:00 61.7 53.3 74 WNW 3 G 6 30.07 1018.4 0.00 0 0.003
16 02:00 63.2 54.0 72.3 63.2 72 WNW 3 G 17 30.05 1017.6 0.01 0.01 0.00 0 0.001
16 01:00 65.3 57.5 76 WNW 4 G 13 30.02 1016.8 0.00 0 0.000
16 00:00 66.7 62.1 85 WNW 3 G 14 29.98 1015.4 0.01 0.15 0 0.034
15 23:00 71.4 66.3 84 SSW 4 G 9 29.93 1013.7 0.14 0 0.033
15 22:00 71.6 66.5 84 WSW 2 G 10 29.93 1013.7 0.14 0 0.032
15 21:00 71.7 66.6 84 S 4 G 17 29.93 1013.4 0.14 0 0.031
15 20:00 68.0 65.0 69.6 66.3 90 S 1 G 6 29.94 1013.8 0.01 0.14 0 0.031
15 19:00 67.9 64.5 89 S 2 G 10 29.92 1013.2 0.14 0 0.031
15 18:00 68.0 64.6 89 SSE 4 G 7 29.93 1013.6 0.14 5 0.030
15 17:00 68.9 64.9 87 SSW 2 G 12 29.94 1014.1 0.01 0.14 90 0.027
15 16:00 68.1 64.1 87 SE 2 G 5 29.97 1015.0 0.14 135 0.024
15 15:00 66.4 62.7 88 S 5 G 10 29.99 1015.5 0.01 0.14 90 0.022
15 14:00 69.5 65.1 70.5 58.8 86 S 2 G 5 30.01 1016.2 0.05 0.13 118 0.018
15 13:00 68.7 64.0 85 S 3 G 7 30.01 1016.4 0.13 248 0.011
15 12:00 65.4 62.1 89 SW 4 G 9 30.05 1017.5 0.13 279 0.006
15 11:00 62.5 60.4 93 SSW 5 G 12 30.06 1018.1 0.05 0.13 125 0.003
15 10:00 61.1 59.4 94 SSE 3 G 6 30.08 1018.5 0.04 0.13 139 0.001
15 09:00 59.6 57.9 94 SSW 2 G 7 30.10 1019.3 0.01 0.09 14 0.000
15 08:00 58.9 57.2 58.9 56.3 94 S 4 G 10 30.09 1019.1 0.03 0.05 0.05 0.08 7 0.000
15 07:00 58.4 56.4 93 SSE 3 G 11 30.10 1019.4 0.02 0.05 0 0.000
15 06:00 58.0 56.3 94 SSE 0 G 4 30.11 1019.7 0.03 0 0.000
15 05:00 57.3 55.6 94 W 1 G 3 30.11 1019.7 0.03 0 0.000
15 04:00 56.8 55.1 94 W 0 G 2 30.11 1019.8 0.03 0 0.000
15 03:00 56.5 54.5 93 Calm 30.15 1020.9 0.03 0 0.000
15 02:00 56.4 54.4 56.4 54.8 93 W 0 G 1 30.16 1021.3 0.01 0.03 0.03 0.03 0 0.000
15 01:00 56.1 53.8 92 W 0 G 2 30.18 1022.0 0.02 0.02 0 0.000
15 00:00 55.7 53.4 92 Calm 30.18 1022.1 0.03 0 0.021
14 23:00 55.7 53.4 92 Calm 30.19 1022.2 0.03 0 0.021
14 22:00 55.1 52.8 92 Calm 30.20 1022.6 0.03 0 0.021
14 21:00 55.1 52.5 91 Calm 30.19 1022.4 0.03 0 0.021
14 20:00 54.9 52.3 57.5 54.7 91 Calm 30.19 1022.4 0.03 0 0.021
14 19:00 55.3 52.1 89 Calm 30.19 1022.4 0.03 0 0.021
14 18:00 56.1 52.0 86 Calm 30.19 1022.4 0.03 14 0.020
14 17:00 57.5 51.7 81 W 0 G 3 30.19 1022.5 0.03 70 0.018
14 16:00 57.0 51.6 82 W 1 G 2 30.21 1023.2 0.03 137 0.016
14 15:00 56.6 51.5 83 W 0 G 6 30.22 1023.3 0.03 116 0.013
14 14:00 55.4 50.7 55.6 45.9 84 W 0 G 2 30.23 1023.6 0.03 0.03 0.03 107 0.010
14 13:00 54.7 50.6 86 W 1 G 2 30.24 1024.1 0.01 0.03 174 0.007
14 12:00 53.5 49.1 85 W 0 G 1 30.26 1024.8 0.02 0.02 118 0.005
14 11:00 54.1 48.7 82 W 0 G 2 30.26 1024.8 0.00 83 0.003
14 10:00 52.7 48.3 85 W 1 G 2 30.26 1024.9 0.00 60 0.001
14 09:00 48.9 46.1 90 W 0 G 3 30.25 1024.5 0.00 72 0.000
14 08:00 45.9 43.7 45.9 42.7 92 W 0 G 1 30.21 1023.0 0.00 21 0.000
14 07:00 45.0 42.8 92 W 0 G 1 30.20 1022.7 0.00 0 0.000
14 06:00 44.1 42.2 93 W 1 G 2 30.18 1022.1 0.00 0 0.000

Data generated by WxSolution Version 1.9.1.6, Build 2018.07.01.